Time;durP1;ratioP1;P1;durP2;ratioP2;P2;SDS_P1;SDS_P2;PMS_P1;PMS_P2;Temp;Humidity;BMP_temperature;BMP_pressure;BME280_temperature;BME280_humidity;BME280_pressure;Samples;Min_cycle;Max_cycle;Signal;HPM_P1;HPM_P2
2023/07/25 00:02:23;;;;;;;1.77;1.48;;;;;19.60;100529.00;;;;5101604;28;20205;-81
2023/07/25 00:04:50;;;;;;;2.28;1.23;;;;;19.50;100529.00;;;;5110663;28;20224;-81
2023/07/25 00:07:18;;;;;;;1.20;1.00;;;;;19.50;100531.00;;;;5110431;28;20243;-81
2023/07/25 00:09:45;;;;;;;2.47;1.02;;;;;19.50;100524.00;;;;5110688;28;20205;-82
2023/07/25 00:12:12;;;;;;;1.33;0.88;;;;;19.50;100531.00;;;;5108882;28;20205;-81
2023/07/25 00:14:39;;;;;;;2.58;1.10;;;;;19.40;100532.00;;;;5109636;28;20220;-81
2023/07/25 00:17:08;;;;;;;1.63;0.98;;;;;19.40;100532.00;;;;5110023;28;20209;-81
2023/07/25 00:19:35;;;;;;;1.40;0.80;;;;;19.40;100533.00;;;;5110201;28;20205;-81
2023/07/25 00:22:03;;;;;;;1.70;1.13;;;;;19.40;100540.00;;;;5110326;28;20186;-81
2023/07/25 00:24:30;;;;;;;2.53;1.10;;;;;19.30;100537.00;;;;5109438;28;20190;-81
2023/07/25 00:26:57;;;;;;;1.33;0.80;;;;;19.30;100540.00;;;;5109997;28;20201;-80
2023/07/25 00:29:24;;;;;;;1.10;0.80;;;;;19.30;100535.00;;;;5104922;28;20202;-81
2023/07/25 00:31:52;;;;;;;1.75;1.00;;;;;19.30;100540.00;;;;5089901;28;20206;-81
2023/07/25 00:34:20;;;;;;;2.38;1.00;;;;;19.20;100543.00;;;;5093878;28;20559;-81
2023/07/25 00:36:47;;;;;;;1.30;0.90;;;;;19.20;100543.00;;;;5110057;28;20570;-81
2023/07/25 00:39:15;;;;;;;1.50;0.82;;;;;19.20;100537.00;;;;5109512;28;20197;-81
2023/07/25 00:41:42;;;;;;;1.80;0.95;;;;;19.20;100533.00;;;;5109652;28;20197;-81
2023/07/25 00:44:09;;;;;;;2.20;1.27;;;;;19.20;100536.00;;;;5109902;28;20200;-81
2023/07/25 00:46:36;;;;;;;1.20;1.05;;;;;19.20;100540.00;;;;5108429;28;20244;-81
2023/07/25 00:49:06;;;;;;;1.23;1.10;;;;;19.20;100536.00;;;;5109660;28;20193;-81
2023/07/25 00:51:35;;;;;;;1.30;1.02;;;;;19.10;100543.00;;;;5109111;28;20201;-81
2023/07/25 00:54:03;;;;;;;1.42;1.05;;;;;19.10;100533.00;;;;5109240;28;20202;-82
2023/07/25 00:56:30;;;;;;;1.13;1.00;;;;;19.20;100537.00;;;;5109098;28;20198;-81
2023/07/25 00:58:57;;;;;;;3.78;1.40;;;;;19.10;100533.00;;;;5109236;28;20213;-81
2023/07/25 01:01:25;;;;;;;1.48;1.10;;;;;19.10;100532.00;;;;5109443;28;20212;-80
2023/07/25 01:03:55;;;;;;;3.00;0.93;;;;;19.10;100529.00;;;;5108308;28;20205;-81
2023/07/25 01:06:22;;;;;;;1.27;0.93;;;;;19.10;100534.00;;;;5108815;28;20233;-81
2023/07/25 01:08:52;;;;;;;2.22;1.20;;;;;19.00;100527.00;;;;5108515;28;20194;-81
2023/07/25 01:11:21;;;;;;;1.70;1.10;;;;;19.00;100524.00;;;;5109296;28;20207;-81
2023/07/25 01:13:49;;;;;;;2.83;1.20;;;;;19.00;100532.00;;;;5108872;28;20190;-81
2023/07/25 01:16:18;;;;;;;1.15;0.95;;;;;19.00;100531.00;;;;5109299;28;20209;-81
2023/07/25 01:18:47;;;;;;;2.17;1.10;;;;;19.00;100523.00;;;;5109491;28;20201;-81
2023/07/25 01:21:14;;;;;;;1.55;1.00;;;;;19.00;100527.00;;;;5096304;28;20209;-81
2023/07/25 01:23:43;;;;;;;3.70;1.48;;;;;19.00;100523.00;;;;5088772;28;20206;-81
2023/07/25 01:26:12;;;;;;;5.40;1.30;;;;;18.90;100522.00;;;;5088744;28;20237;-81
2023/07/25 01:28:39;;;;;;;5.10;1.35;;;;;18.90;100524.00;;;;5088340;28;20210;-81
2023/07/25 01:31:06;;;;;;;1.63;1.00;;;;;18.90;100519.00;;;;5087927;28;20678;-81
2023/07/25 01:33:33;;;;;;;2.80;1.25;;;;;18.90;100515.00;;;;5088796;28;20676;-81
2023/07/25 01:36:01;;;;;;;1.88;1.20;;;;;18.90;100516.00;;;;5107863;28;20205;-81
2023/07/25 01:38:28;;;;;;;1.55;1.08;;;;;18.80;100519.00;;;;5094581;28;20206;-81
2023/07/25 01:40:56;;;;;;;2.25;1.00;;;;;18.80;100521.00;;;;5088950;28;20488;-81
2023/07/25 01:43:24;;;;;;;1.63;1.15;;;;;18.80;100522.00;;;;5088335;28;20212;-81
2023/07/25 01:45:51;;;;;;;2.13;1.40;;;;;18.80;100515.00;;;;5087865;28;20222;-81
2023/07/25 01:48:19;;;;;;;3.50;1.38;;;;;18.70;100515.00;;;;5088100;28;20194;-81
2023/07/25 01:50:46;;;;;;;1.52;1.23;;;;;18.70;100509.00;;;;5088231;28;20575;-82
2023/07/25 01:53:13;;;;;;;1.25;1.00;;;;;18.70;100513.00;;;;5088515;28;20198;-81
2023/07/25 01:55:40;;;;;;;3.13;1.13;;;;;18.70;100507.00;;;;5087589;28;20220;-81
2023/07/25 01:58:08;;;;;;;2.58;1.33;;;;;18.60;100505.00;;;;5089490;28;20221;-82
2023/07/25 02:00:36;;;;;;;1.75;1.10;;;;;18.60;100508.00;;;;5108359;28;20202;-80
2023/07/25 02:03:03;;;;;;;2.13;1.50;;;;;18.60;100503.00;;;;5108005;28;20201;-81
2023/07/25 02:05:31;;;;;;;1.80;1.40;;;;;18.60;100505.00;;;;5095598;28;20232;-81
2023/07/25 02:07:58;;;;;;;3.35;1.60;;;;;18.60;100497.00;;;;5088558;28;20230;-82
2023/07/25 02:10:27;;;;;;;5.13;1.50;;;;;18.50;100494.00;;;;5088032;28;20569;-81
2023/07/25 02:12:56;;;;;;;5.88;1.30;;;;;18.50;100506.00;;;;5103991;28;20682;-81
2023/07/25 02:15:23;;;;;;;1.92;1.25;;;;;18.50;100499.00;;;;5101704;28;20201;-81
2023/07/25 02:17:51;;;;;;;2.15;1.23;;;;;18.50;100499.00;;;;5108630;28;20216;-81
2023/07/25 02:20:20;;;;;;;2.13;1.00;;;;;18.50;100494.00;;;;5107989;28;20630;-82
2023/07/25 02:22:47;;;;;;;3.85;1.20;;;;;18.40;100493.00;;;;5108634;28;20208;-81
2023/07/25 02:25:14;;;;;;;2.17;1.27;;;;;18.40;100492.00;;;;5107264;28;20197;-81
2023/07/25 02:27:43;;;;;;;1.13;1.00;;;;;18.40;100488.00;;;;5108005;28;20197;-81
2023/07/25 02:30:12;;;;;;;3.65;1.48;;;;;18.40;100481.00;;;;5107748;28;20326;-82
2023/07/25 02:32:39;;;;;;;4.15;1.70;;;;;18.40;100492.00;;;;5108069;28;20662;-82
2023/07/25 02:35:08;;;;;;;2.40;1.33;;;;;18.30;100494.00;;;;5111770;28;20198;-82
2023/07/25 02:37:35;;;;;;;1.20;1.10;;;;;18.30;100497.00;;;;5111816;28;20584;-82
2023/07/25 02:40:03;;;;;;;1.67;1.30;;;;;18.30;100489.00;;;;5112013;28;20204;-82
2023/07/25 02:42:30;;;;;;;1.63;1.30;;;;;18.30;100492.00;;;;5112143;28;20190;-81
2023/07/25 02:44:57;;;;;;;2.25;1.20;;;;;18.20;100486.00;;;;5111108;28;20193;-81
2023/07/25 02:47:24;;;;;;;1.67;1.25;;;;;18.20;100492.00;;;;5111354;28;20229;-82
2023/07/25 02:49:51;;;;;;;2.15;1.30;;;;;18.20;100494.00;;;;5112359;28;20193;-81
2023/07/25 02:52:20;;;;;;;1.80;1.02;;;;;18.20;100486.00;;;;5111805;28;20206;-82
2023/07/25 02:54:47;;;;;;;2.58;1.50;;;;;18.20;100480.00;;;;5111945;28;20198;-81
2023/07/25 02:57:15;;;;;;;1.70;1.40;;;;;18.20;100482.00;;;;5111335;28;20212;-81
2023/07/25 02:59:42;;;;;;;1.27;1.17;;;;;18.20;100480.00;;;;5111117;28;20671;-81
2023/07/25 03:02:10;;;;;;;3.10;1.23;;;;;18.20;100482.00;;;;5110972;28;20212;-81
2023/07/25 03:04:37;;;;;;;2.17;1.50;;;;;18.20;100487.00;;;;5111295;28;20189;-81
2023/07/25 03:07:05;;;;;;;2.22;1.60;;;;;18.10;100494.00;;;;5111194;28;20241;-81
2023/07/25 03:09:33;;;;;;;2.75;1.25;;;;;18.10;100492.00;;;;5110914;28;20251;-81
2023/07/25 03:12:01;;;;;;;1.75;1.30;;;;;18.20;100496.00;;;;5111668;28;20202;-82
2023/07/25 03:14:28;;;;;;;2.17;1.38;;;;;18.10;100498.00;;;;5110566;28;20202;-82
2023/07/25 03:16:55;;;;;;;1.45;1.00;;;;;18.20;100499.00;;;;5111383;28;20202;-82
2023/07/25 03:19:22;;;;;;;2.72;1.20;;;;;18.20;100497.00;;;;5106838;28;20198;-81
2023/07/25 03:21:50;;;;;;;4.25;1.65;;;;;18.20;100504.00;;;;5090480;28;20190;-81
2023/07/25 03:24:18;;;;;;;2.78;1.40;;;;;18.10;100499.00;;;;5090771;28;20210;-81
2023/07/25 03:26:46;;;;;;;1.67;1.58;;;;;18.10;100501.00;;;;5090891;28;20230;-81
2023/07/25 03:29:14;;;;;;;2.47;1.63;;;;;18.20;100491.00;;;;5091542;28;20202;-81
2023/07/25 03:31:41;;;;;;;3.03;1.45;;;;;18.20;100485.00;;;;5090138;28;20202;-81
2023/07/25 03:34:08;;;;;;;2.83;1.60;;;;;18.20;100492.00;;;;5091041;28;20209;-81
2023/07/25 03:36:36;;;;;;;4.60;1.50;;;;;18.20;100489.00;;;;5092046;28;20191;-81
2023/07/25 03:39:03;;;;;;;4.13;1.48;;;;;18.20;100488.00;;;;5090411;28;20198;-81
2023/07/25 03:41:30;;;;;;;2.55;1.60;;;;;18.20;100489.00;;;;5090314;28;20194;-81
2023/07/25 03:43:59;;;;;;;1.80;1.33;;;;;18.20;100488.00;;;;5089431;28;20199;-81
2023/07/25 03:46:26;;;;;;;1.42;1.33;;;;;18.20;100487.00;;;;5089868;28;20234;-80
2023/07/25 03:48:54;;;;;;;2.33;1.45;;;;;18.20;100490.00;;;;5090621;28;20205;-82
2023/07/25 03:51:21;;;;;;;6.85;2.17;;;;;18.20;100485.00;;;;5090030;28;20671;-81
2023/07/25 03:53:48;;;;;;;3.45;1.40;;;;;18.20;100485.00;;;;5091150;28;20206;-81
2023/07/25 03:56:15;;;;;;;2.25;1.33;;;;;18.20;100483.00;;;;5089686;28;20202;-81
2023/07/25 03:58:43;;;;;;;2.75;1.50;;;;;18.20;100485.00;;;;5090009;28;20698;-81
2023/07/25 04:01:11;;;;;;;2.80;1.52;;;;;18.20;100489.00;;;;5090262;28;20194;-81
2023/07/25 04:03:39;;;;;;;1.67;1.40;;;;;18.20;100479.00;;;;5090263;28;20198;-81
2023/07/25 04:06:06;;;;;;;6.55;1.50;;;;;18.20;100480.00;;;;5107397;28;20221;-81
2023/07/25 04:08:33;;;;;;;2.47;1.40;;;;;18.20;100483.00;;;;5109951;28;20208;-81
2023/07/25 04:11:00;;;;;;;2.13;1.60;;;;;18.30;100481.00;;;;5109657;28;20685;-81
2023/07/25 04:13:28;;;;;;;1.83;1.45;;;;;18.30;100486.00;;;;5109699;28;20202;-82
2023/07/25 04:15:55;;;;;;;1.60;1.45;;;;;18.30;100486.00;;;;5110664;28;20201;-81
2023/07/25 04:18:24;;;;;;;1.95;1.50;;;;;18.30;100496.00;;;;5109104;28;20228;-81
2023/07/25 04:20:51;;;;;;;2.15;1.63;;;;;18.30;100490.00;;;;5109501;28;20197;-82
2023/07/25 04:23:20;;;;;;;2.50;1.52;;;;;18.30;100489.00;;;;5109974;28;20202;-81
2023/07/25 04:25:47;;;;;;;1.60;1.50;;;;;18.30;100494.00;;;;5109977;28;20201;-81
2023/07/25 04:28:15;;;;;;;3.03;1.52;;;;;18.40;100499.00;;;;5098475;28;20202;-82
2023/07/25 04:30:43;;;;;;;5.55;1.80;;;;;18.30;100498.00;;;;5089161;28;20205;-81
2023/07/25 04:33:10;;;;;;;2.85;1.80;;;;;18.40;100499.00;;;;5090257;28;20194;-82
2023/07/25 04:35:38;;;;;;;2.80;1.60;;;;;18.40;100496.00;;;;5088810;28;20233;-81
2023/07/25 04:38:06;;;;;;;1.77;1.67;;;;;18.40;100485.00;;;;5107272;28;20318;-81
2023/07/25 04:40:33;;;;;;;2.10;1.90;;;;;18.40;100486.00;;;;5109834;28;20674;-81
2023/07/25 04:43:00;;;;;;;2.40;1.88;;;;;18.40;100486.00;;;;5109814;28;20197;-81
2023/07/25 04:45:27;;;;;;;1.83;1.48;;;;;18.40;100491.00;;;;5095814;28;20229;-81
2023/07/25 04:47:55;;;;;;;2.35;2.03;;;;;18.40;100491.00;;;;5089436;28;20309;-81
2023/07/25 04:50:22;;;;;;;1.50;1.33;;;;;18.50;100483.00;;;;5088990;28;20564;-82
2023/07/25 04:52:51;;;;;;;1.92;1.30;;;;;18.50;100484.00;;;;5088748;28;20201;-81
2023/07/25 04:55:18;;;;;;;4.43;1.60;;;;;18.50;100498.00;;;;5089167;28;20199;-82
2023/07/25 04:57:45;;;;;;;4.75;1.80;;;;;18.50;100500.00;;;;5088529;28;20202;-81
2023/07/25 05:00:13;;;;;;;2.95;1.92;;;;;18.50;100508.00;;;;5089268;28;20195;-81
2023/07/25 05:02:41;;;;;;;3.42;2.00;;;;;18.60;100500.00;;;;5089008;28;20535;-81
2023/07/25 05:05:09;;;;;;;3.00;2.00;;;;;18.60;100500.00;;;;5089100;28;20255;-82
2023/07/25 05:07:36;;;;;;;2.47;1.83;;;;;18.60;100520.00;;;;5103203;28;20233;-81
2023/07/25 05:10:06;;;;;;;3.72;2.08;;;;;18.60;100520.00;;;;5109205;28;20205;-81
2023/07/25 05:12:33;;;;;;;4.18;2.30;;;;;18.60;100522.00;;;;5108338;28;20198;-81
2023/07/25 05:15:00;;;;;;;2.88;1.92;;;;;18.60;100518.00;;;;5108474;28;20197;-82
2023/07/25 05:17:27;;;;;;;4.07;2.03;;;;;18.70;100526.00;;;;5109017;28;20197;-81
2023/07/25 05:19:55;;;;;;;1.95;1.40;;;;;18.70;100530.00;;;;5092497;28;20202;-81
2023/07/25 05:22:22;;;;;;;2.60;2.00;;;;;18.70;100527.00;;;;5088516;28;20198;-81
2023/07/25 05:24:49;;;;;;;4.38;1.80;;;;;18.70;100529.00;;;;5088604;28;20518;-80
2023/07/25 05:27:18;;;;;;;3.22;1.70;;;;;18.80;100529.00;;;;5088910;28;20224;-80
2023/07/25 05:29:45;;;;;;;2.67;1.50;;;;;18.80;100530.00;;;;5088834;28;20209;-80
2023/07/25 05:32:12;;;;;;;4.30;1.70;;;;;18.90;100532.00;;;;5088631;28;20202;-81
2023/07/25 05:34:39;;;;;;;3.13;1.80;;;;;18.90;100534.00;;;;5088069;28;20214;-80
2023/07/25 05:37:07;;;;;;;3.53;1.75;;;;;18.90;100531.00;;;;5089370;28;20195;-80
2023/07/25 05:39:34;;;;;;;4.97;1.80;;;;;19.00;100536.00;;;;5087949;28;20198;-81
2023/07/25 05:42:02;;;;;;;3.90;1.85;;;;;19.00;100536.00;;;;5088198;28;20194;-80
2023/07/25 05:44:30;;;;;;;4.10;1.92;;;;;19.00;100532.00;;;;5088200;28;20270;-80
2023/07/25 05:46:58;;;;;;;2.80;1.50;;;;;19.10;100534.00;;;;5087756;28;20222;-80
2023/07/25 05:49:26;;;;;;;2.25;1.40;;;;;19.20;100535.00;;;;5087929;28;20619;-80
2023/07/25 05:51:53;;;;;;;2.63;1.30;;;;;19.20;100539.00;;;;5088597;28;20196;-80
2023/07/25 05:54:21;;;;;;;3.75;1.30;;;;;19.20;100536.00;;;;5088026;28;20622;-81
2023/07/25 05:56:48;;;;;;;2.95;1.27;;;;;19.30;100530.00;;;;5088310;28;20214;-81
2023/07/25 05:59:16;;;;;;;2.13;1.23;;;;;19.30;100526.00;;;;5087843;28;20202;-81
2023/07/25 06:01:45;;;;;;;2.65;1.13;;;;;19.40;100535.00;;;;5088082;28;20190;-80
2023/07/25 06:04:13;;;;;;;3.15;1.33;;;;;19.40;100534.00;;;;5087768;28;20190;-81
2023/07/25 06:06:40;;;;;;;3.63;1.10;;;;;19.50;100542.00;;;;5094764;28;20230;-80
2023/07/25 06:09:08;;;;;;;3.85;0.90;;;;;19.50;100550.00;;;;5114306;28;20591;-81
2023/07/25 06:11:35;;;;;;;1.58;0.90;;;;;19.60;100535.00;;;;5114727;28;20197;-80
2023/07/25 06:14:02;;;;;;;2.92;1.05;;;;;19.70;100542.00;;;;5114040;28;20189;-81
2023/07/25 06:16:30;;;;;;;1.27;1.05;;;;;19.70;100541.00;;;;5114869;28;20208;-81
2023/07/25 06:18:58;;;;;;;4.60;1.10;;;;;19.70;100539.00;;;;5115251;28;20517;-81
2023/07/25 06:21:25;;;;;;;2.53;0.80;;;;;19.90;100543.00;;;;5115583;28;20213;-82
2023/07/25 06:23:53;;;;;;;2.13;1.10;;;;;20.00;100540.00;;;;5114980;28;20330;-81
2023/07/25 06:26:20;;;;;;;3.25;0.98;;;;;20.00;100538.00;;;;5110944;28;20671;-81
2023/07/25 06:28:47;;;;;;;3.75;1.10;;;;;20.10;100541.00;;;;5093824;28;20221;-81
2023/07/25 06:31:15;;;;;;;4.53;1.33;;;;;20.20;100544.00;;;;5094802;28;20194;-81
2023/07/25 06:33:42;;;;;;;2.35;0.82;;;;;20.30;100537.00;;;;5094145;28;20214;-80
2023/07/25 06:36:10;;;;;;;3.28;1.38;;;;;20.40;100533.00;;;;5093745;28;20198;-79
2023/07/25 06:38:38;;;;;;;2.72;0.98;;;;;20.40;100536.00;;;;5109270;28;20209;-80
2023/07/25 06:41:05;;;;;;;2.25;0.80;;;;;20.50;100535.00;;;;5114936;28;20193;-81
2023/07/25 06:43:32;;;;;;;2.55;0.70;;;;;20.60;100536.00;;;;5108958;28;20598;-82
2023/07/25 06:46:00;;;;;;;4.72;1.15;;;;;20.60;100541.00;;;;5094012;28;20209;-81
2023/07/25 06:48:27;;;;;;;3.40;0.90;;;;;20.70;100539.00;;;;5093739;28;20226;-81
2023/07/25 06:50:55;;;;;;;2.38;0.73;;;;;20.70;100537.00;;;;5094475;28;20202;-82
2023/07/25 06:53:23;;;;;;;1.73;0.85;;;;;20.80;100543.00;;;;5093401;28;20201;-81
2023/07/25 06:55:50;;;;;;;3.13;0.85;;;;;20.80;100546.00;;;;5094598;28;20209;-81
2023/07/25 06:58:18;;;;;;;4.25;0.98;;;;;20.90;100552.00;;;;5094241;28;20741;-81
2023/07/25 07:00:47;;;;;;;3.13;1.10;;;;;21.00;100556.00;;;;5095205;28;20206;-82
2023/07/25 07:03:14;;;;;;;2.45;0.88;;;;;21.10;100549.00;;;;5094541;28;20202;-82
2023/07/25 07:05:42;;;;;;;4.78;1.20;;;;;21.10;100547.00;;;;5093541;28;20218;-82
2023/07/25 07:08:09;;;;;;;1.95;0.75;;;;;21.20;100550.00;;;;5113114;28;20233;-82
2023/07/25 07:10:37;;;;;;;2.00;0.63;;;;;21.30;100544.00;;;;5114373;28;20201;-82
2023/07/25 07:13:07;;;;;;;2.58;0.70;;;;;21.30;100543.00;;;;5114646;28;20202;-81
2023/07/25 07:15:34;;;;;;;0.68;0.45;;;;;21.40;100543.00;;;;5114428;28;20189;-82
2023/07/25 07:18:01;;;;;;;2.80;0.70;;;;;21.50;100548.00;;;;5105298;28;20194;-82
2023/07/25 07:20:28;;;;;;;1.23;0.60;;;;;21.60;100543.00;;;;5089952;28;20210;-82
2023/07/25 07:22:56;;;;;;;3.70;0.70;;;;;21.60;100542.00;;;;5090801;28;20206;-83
2023/07/25 07:25:23;;;;;;;2.30;0.60;;;;;21.70;100537.00;;;;5090465;28;20206;-81
2023/07/25 07:27:52;;;;;;;1.38;0.60;;;;;21.70;100544.00;;;;5090998;28;20222;-82
2023/07/25 07:30:19;;;;;;;3.42;0.68;;;;;21.80;100547.00;;;;5090778;28;20200;-82
2023/07/25 07:32:47;;;;;;;1.40;0.43;;;;;21.90;100554.00;;;;5091492;28;20201;-82
2023/07/25 07:35:14;;;;;;;2.10;0.68;;;;;22.00;100545.00;;;;5091253;28;20244;-83
2023/07/25 07:37:41;;;;;;;1.48;0.60;;;;;22.20;100554.00;;;;5097011;28;20209;-82
2023/07/25 07:40:09;;;;;;;1.35;0.35;;;;;22.30;100549.00;;;;5111074;28;20194;-82
2023/07/25 07:42:36;;;;;;;2.80;0.70;;;;;22.30;100548.00;;;;5110447;28;20205;-82
2023/07/25 07:45:06;;;;;;;0.90;0.50;;;;;22.40;100550.00;;;;5110875;28;20331;-82
2023/07/25 07:47:34;;;;;;;3.30;0.60;;;;;22.50;100546.00;;;;5110349;28;20218;-82
2023/07/25 07:50:01;;;;;;;2.28;0.35;;;;;22.50;100550.00;;;;5110971;28;20208;-82
2023/07/25 07:52:28;;;;;;;3.97;0.50;;;;;22.60;100550.00;;;;5097292;28;20202;-81
2023/07/25 07:54:56;;;;;;;0.50;0.38;;;;;22.70;100543.00;;;;5090440;28;20201;-82
2023/07/25 07:57:23;;;;;;;1.58;0.30;;;;;22.70;100559.00;;;;5089812;28;20210;-82
2023/07/25 07:59:50;;;;;;;0.85;0.30;;;;;22.80;100557.00;;;;5090013;28;20206;-82
2023/07/25 08:02:19;;;;;;;1.23;0.25;;;;;22.80;100557.00;;;;5090283;28;20198;-83
2023/07/25 08:04:46;;;;;;;2.00;0.43;;;;;22.80;100571.00;;;;5090216;28;20627;-82
2023/07/25 08:07:13;;;;;;;0.50;0.30;;;;;22.80;100571.00;;;;5089741;28;20230;-82
2023/07/25 08:09:41;;;;;;;1.00;0.40;;;;;22.90;100560.00;;;;5108274;28;20213;-82
2023/07/25 08:12:09;;;;;;;2.10;0.40;;;;;23.00;100561.00;;;;5109639;28;20209;-82
2023/07/25 08:14:36;;;;;;;0.55;0.20;;;;;23.20;100575.00;;;;5109632;28;20363;-82
2023/07/25 08:17:03;;;;;;;1.25;0.70;;;;;23.30;100582.00;;;;5110633;28;20201;-82
2023/07/25 08:19:32;;;;;;;2.60;0.38;;;;;23.40;100593.00;;;;5109350;28;20201;-82
2023/07/25 08:22:00;;;;;;;1.23;0.30;;;;;23.40;100581.00;;;;5110305;28;20330;-83
2023/07/25 08:24:27;;;;;;;1.50;0.40;;;;;23.40;100581.00;;;;5109734;28;20213;-83
2023/07/25 08:26:54;;;;;;;2.28;0.38;;;;;23.40;100595.00;;;;5092771;28;20222;-83
2023/07/25 08:29:21;;;;;;;3.97;0.50;;;;;23.40;100597.00;;;;5088354;28;20229;-82
2023/07/25 08:31:49;;;;;;;0.25;0.20;;;;;23.40;100600.00;;;;5088900;28;20331;-82
2023/07/25 08:34:16;;;;;;;1.75;0.43;;;;;23.40;100596.00;;;;5089665;28;20196;-82
2023/07/25 08:36:45;;;;;;;1.48;0.30;;;;;23.40;100602.00;;;;5089477;28;20202;-83
2023/07/25 08:39:12;;;;;;;1.63;0.35;;;;;23.40;100603.00;;;;5109108;28;20584;-82
2023/07/25 08:41:44;;;;;;;1.70;0.50;;;;;23.40;100609.00;;;;5109672;28;20208;-82
2023/07/25 08:44:12;;;;;;;1.13;0.47;;;;;23.40;100608.00;;;;5108917;28;20596;-82
2023/07/25 08:46:42;;;;;;;1.33;0.30;;;;;23.50;100605.00;;;;5109544;28;20213;-83
2023/07/25 08:49:16;;;;;;;1.27;0.25;;;;;23.50;100611.00;;;;5109372;28;20221;-83
2023/07/25 08:51:45;;;;;;;1.52;0.50;;;;;23.60;100617.00;;;;5109076;28;20197;-82
2023/07/25 08:54:21;;;;;;;0.30;0.20;;;;;23.60;100619.00;;;;5109928;28;20197;-81
2023/07/25 08:56:49;;;;;;;1.35;0.35;;;;;23.70;100625.00;;;;5109581;28;20194;-83
2023/07/25 08:59:18;;;;;;;2.10;0.30;;;;;23.70;100629.00;;;;5108791;28;20206;-83
2023/07/25 09:01:46;;;;;;;3.30;0.40;;;;;23.70;100625.00;;;;5108556;28;20693;-82
2023/07/25 09:04:15;;;;;;;2.50;0.30;;;;;23.70;100627.00;;;;5109201;28;20205;-83
2023/07/25 09:06:43;;;;;;;1.48;0.30;;;;;23.70;100638.00;;;;5108671;28;20260;-83
2023/07/25 09:09:11;;;;;;;0.88;0.32;;;;;23.70;100631.00;;;;5109070;28;20236;-82
2023/07/25 09:11:38;;;;;;;1.92;0.75;;;;;23.70;100643.00;;;;5108826;28;20197;-79
2023/07/25 09:14:06;;;;;;;1.23;0.30;;;;;23.70;100637.00;;;;5109221;28;20190;-81
2023/07/25 09:16:34;;;;;;;1.05;0.10;;;;;23.80;100642.00;;;;5102626;28;20690;-83
2023/07/25 09:19:01;;;;;;;0.60;0.50;;;;;23.90;100636.00;;;;5089278;28;20197;-83
2023/07/25 09:21:29;;;;;;;1.98;0.50;;;;;24.00;100629.00;;;;5087630;28;20223;-83
2023/07/25 09:23:59;;;;;;;0.75;0.20;;;;;24.00;100631.00;;;;5088685;28;20210;-83
2023/07/25 09:26:28;;;;;;;1.80;0.22;;;;;24.10;100639.00;;;;5086600;28;20198;-83
2023/07/25 09:28:57;;;;;;;1.02;0.20;;;;;24.10;100640.00;;;;5086939;28;20225;-83
2023/07/25 09:31:25;;;;;;;1.52;0.38;;;;;24.10;100649.00;;;;5087087;28;20187;-82
2023/07/25 09:33:54;;;;;;;2.03;0.40;;;;;24.10;100643.00;;;;5087733;28;20210;-82
2023/07/25 09:36:22;;;;;;;0.85;0.38;;;;;24.10;100653.00;;;;5086793;28;20209;-83
2023/07/25 09:38:50;;;;;;;1.73;0.45;;;;;24.20;100658.00;;;;5088981;28;20217;-83
2023/07/25 09:41:19;;;;;;;0.30;0.20;;;;;24.10;100666.00;;;;5106953;28;20201;-83
2023/07/25 09:43:47;;;;;;;0.32;0.20;;;;;24.20;100654.00;;;;5107059;28;20189;-83
2023/07/25 09:46:14;;;;;;;0.73;0.20;;;;;24.20;100656.00;;;;5106448;28;20204;-83
2023/07/25 09:48:44;;;;;;;0.73;0.40;;;;;24.10;100652.00;;;;5107004;28;20228;-83
2023/07/25 09:51:12;;;;;;;4.22;0.35;;;;;24.10;100656.00;;;;5094868;28;20209;-82
2023/07/25 09:53:42;;;;;;;1.10;0.40;;;;;24.10;100650.00;;;;5086282;28;20213;-82
2023/07/25 09:56:10;;;;;;;0.50;0.20;;;;;24.20;100654.00;;;;5087253;28;20197;-82
2023/07/25 09:58:38;;;;;;;0.82;0.40;;;;;24.20;100655.00;;;;5088400;28;20194;-83
2023/07/25 10:01:06;;;;;;;1.02;0.20;;;;;24.30;100654.00;;;;5088155;28;20206;-83
2023/07/25 10:03:34;;;;;;;1.50;0.40;;;;;24.30;100656.00;;;;5087791;28;20208;-83
2023/07/25 10:06:04;;;;;;;2.35;0.35;;;;;24.30;100658.00;;;;5087878;28;20225;-83
2023/07/25 10:08:32;;;;;;;0.20;0.10;;;;;24.30;100661.00;;;;5097259;28;20253;-84
2023/07/25 10:11:00;;;;;;;0.63;0.20;;;;;24.40;100661.00;;;;5108249;28;20197;-83
2023/07/25 10:13:28;;;;;;;0.57;0.30;;;;;24.40;100656.00;;;;5107913;28;20654;-83
2023/07/25 10:15:57;;;;;;;0.73;0.30;;;;;24.40;100665.00;;;;5108290;28;20213;-83
2023/07/25 10:18:26;;;;;;;0.95;0.45;;;;;24.50;100663.00;;;;5107529;28;20208;-83
2023/07/25 10:20:54;;;;;;;3.33;0.30;;;;;24.50;100660.00;;;;5108755;28;20193;-82
2023/07/25 10:23:31;;;;;;;1.33;0.28;;;;;24.40;100662.00;;;;5107410;28;20196;-83
2023/07/25 10:26:09;;;;;;;1.17;0.30;;;;;24.50;100672.00;;;;5090739;28;20198;-82
2023/07/25 10:28:36;;;;;;;1.00;0.22;;;;;24.50;100660.00;;;;5087381;28;20214;-82
2023/07/25 10:31:07;;;;;;;0.52;0.15;;;;;24.40;100662.00;;;;5088003;28;20198;-83
2023/07/25 10:33:38;;;;;;;1.13;0.30;;;;;24.40;100658.00;;;;5087174;28;20279;-83
2023/07/25 10:36:06;;;;;;;0.38;0.10;;;;;24.50;100662.00;;;;5088351;28;20195;-82
2023/07/25 10:38:35;;;;;;;0.30;0.13;;;;;24.60;100651.00;;;;5087583;28;20190;-83
2023/07/25 10:41:11;;;;;;;1.45;0.40;;;;;24.70;100653.00;;;;5106823;28;20198;-82
2023/07/25 10:43:57;;;;;;;0.28;0.10;;;;;24.70;100652.00;;;;5107899;28;20519;-83
2023/07/25 10:46:29;;;;;;;1.30;0.30;;;;;24.90;100654.00;;;;5108084;28;20201;-82
2023/07/25 10:48:58;;;;;;;0.40;0.30;;;;;25.10;100658.00;;;;5107704;28;20745;-82
2023/07/25 10:51:47;;;;;;;2.10;0.17;;;;;25.10;100658.00;;;;5107993;28;20212;-82
2023/07/25 10:54:16;;;;;;;0.50;0.20;;;;;25.20;100656.00;;;;5108666;28;20224;-83
2023/07/25 10:57:16;;;;;;;2.17;0.28;;;;;25.10;100654.00;;;;5111534;28;20280;-83
2023/07/25 11:00:00;;;;;;;0.90;0.20;;;;;25.20;100661.00;;;;5110143;28;20211;-83
2023/07/25 11:02:34;;;;;;;0.35;0.20;;;;;25.30;100650.00;;;;5110813;28;20197;-83
2023/07/25 11:05:20;;;;;;;1.80;0.35;;;;;25.20;100665.00;;;;5112320;28;20549;-83
2023/07/25 11:07:51;;;;;;;0.45;0.15;;;;;25.30;100662.00;;;;5111661;28;20270;-83
2023/07/25 11:10:23;;;;;;;1.00;0.22;;;;;25.30;100664.00;;;;5111009;28;20559;-81
2023/07/25 11:12:52;;;;;;;0.75;0.20;;;;;25.30;100668.00;;;;5111889;28;20205;-82
2023/07/25 11:15:20;;;;;;;0.70;0.20;;;;;25.30;100665.00;;;;5107917;28;20289;-83
2023/07/25 11:17:48;;;;;;;0.40;0.22;;;;;25.20;100667.00;;;;5091267;28;20656;-83
2023/07/25 11:20:17;;;;;;;2.30;0.43;;;;;25.20;100673.00;;;;5091124;28;20194;-82
2023/07/25 11:22:48;;;;;;;0.93;0.22;;;;;25.10;100672.00;;;;5090788;28;20686;-83
2023/07/25 11:25:16;;;;;;;0.82;0.20;;;;;25.10;100674.00;;;;5090656;28;20198;-83
2023/07/25 11:27:43;;;;;;;0.47;0.28;;;;;25.20;100669.00;;;;5090210;28;20213;-83
2023/07/25 11:30:15;;;;;;;2.42;0.20;;;;;25.10;100671.00;;;;5091024;28;20229;-83
2023/07/25 11:32:49;;;;;;;1.80;0.50;;;;;25.10;100659.00;;;;5090853;28;20293;-83
2023/07/25 11:35:17;;;;;;;1.05;0.20;;;;;25.20;100666.00;;;;5090339;28;20209;-83
2023/07/25 11:37:44;;;;;;;0.73;0.45;;;;;25.20;100672.00;;;;5089941;28;20729;-83
2023/07/25 11:40:13;;;;;;;1.27;0.30;;;;;25.10;100685.00;;;;5104615;28;20193;-82
2023/07/25 11:42:42;;;;;;;0.93;0.32;;;;;25.10;100676.00;;;;5110372;28;20195;-82
2023/07/25 11:45:11;;;;;;;0.40;0.10;;;;;25.00;100679.00;;;;5111224;28;20207;-83
2023/07/25 11:47:40;;;;;;;1.27;0.22;;;;;25.00;100685.00;;;;5110017;28;20559;-83
2023/07/25 11:50:11;;;;;;;0.50;0.20;;;;;25.00;100684.00;;;;5109968;28;20320;-82
2023/07/25 11:52:40;;;;;;;0.30;0.20;;;;;25.00;100672.00;;;;5110709;28;20591;-82
2023/07/25 11:55:09;;;;;;;2.42;0.30;;;;;25.00;100673.00;;;;5110405;28;20206;-84
2023/07/25 11:57:40;;;;;;;0.57;0.20;;;;;25.00;100666.00;;;;5110248;28;20320;-83
2023/07/25 12:00:11;;;;;;;0.95;0.22;;;;;25.00;100673.00;;;;5110069;28;20193;-83
2023/07/25 12:02:39;;;;;;;0.57;0.32;;;;;25.10;100674.00;;;;5110360;28;20201;-83
2023/07/25 12:05:09;;;;;;;0.85;0.30;;;;;25.10;100675.00;;;;5110096;28;20198;-83
2023/07/25 12:07:50;;;;;;;0.95;0.40;;;;;25.10;100678.00;;;;5109512;28;20264;-83
2023/07/25 12:10:27;;;;;;;1.20;0.38;;;;;25.20;100683.00;;;;5110759;28;20315;-82
2023/07/25 12:12:55;;;;;;;1.23;0.40;;;;;25.30;100686.00;;;;5109686;28;20193;-83
2023/07/25 12:15:24;;;;;;;0.30;0.20;;;;;25.30;100691.00;;;;5109944;28;20686;-83